Time;durP1;ratioP1;P1;durP2;ratioP2;P2;SDS_P1;SDS_P2;PMS_P1;PMS_P2;Temp;Humidity;BMP_temperature;BMP_pressure;BME280_temperature;BME280_humidity;BME280_pressure;Samples;Min_cycle;Max_cycle;Signal;HPM_P1;HPM_P2
2022/10/31 00:01:59;;;;;;;11.20;7.57;;;18.00;72.10;;;;;;5022235;28;20574;-50
2022/10/31 00:04:28;;;;;;;11.25;6.95;;;17.90;72.00;;;;;;5031650;28;20056;-50
2022/10/31 00:06:57;;;;;;;11.52;8.60;;;17.90;72.10;;;;;;5031913;28;20049;-50
2022/10/31 00:09:24;;;;;;;9.98;7.25;;;17.90;72.10;;;;;;5012804;28;20516;-52
2022/10/31 00:11:50;;;;;;;11.43;7.78;;;17.90;72.10;;;;;;5031633;28;20408;-50
2022/10/31 00:14:17;;;;;;;7.78;6.80;;;17.90;72.10;;;;;;5031773;28;20058;-51
2022/10/31 00:16:44;;;;;;;11.38;7.32;;;17.90;72.20;;;;;;5019874;28;20623;-50
2022/10/31 00:19:10;;;;;;;9.35;7.30;;;17.90;72.20;;;;;;5011437;28;20030;-48
2022/10/31 00:21:37;;;;;;;12.02;7.85;;;17.90;72.30;;;;;;5024660;28;20041;-53
2022/10/31 00:24:06;;;;;;;9.80;7.60;;;17.90;72.30;;;;;;5026836;28;20431;-50
2022/10/31 00:26:36;;;;;;;10.88;8.20;;;17.90;72.40;;;;;;5017313;28;20045;-52
2022/10/31 00:29:03;;;;;;;13.63;7.97;;;17.90;72.30;;;;;;5017599;28;20041;-52
2022/10/31 00:31:29;;;;;;;11.70;7.38;;;17.90;72.40;;;;;;5031204;28;20047;-50
2022/10/31 00:33:57;;;;;;;8.73;7.35;;;17.90;72.30;;;;;;5030477;28;20061;-51
2022/10/31 00:36:28;;;;;;;11.00;7.07;;;17.90;72.20;;;;;;5010791;28;20065;-53
2022/10/31 00:38:58;;;;;;;11.32;7.53;;;17.90;72.10;;;;;;5038193;22;20545;-47
2022/10/31 00:41:25;;;;;;;13.07;8.05;;;17.80;71.60;;;;;;5038256;28;20087;-48
2022/10/31 00:43:51;;;;;;;11.60;7.70;;;17.80;71.40;;;;;;5031432;28;20076;-49
2022/10/31 00:46:18;;;;;;;11.07;7.72;;;17.80;71.30;;;;;;5011949;28;20080;-48
2022/10/31 00:48:45;;;;;;;9.70;8.00;;;17.70;71.10;;;;;;5029202;28;20034;-51
2022/10/31 00:51:11;;;;;;;12.00;8.45;;;17.70;71.00;;;;;;5011250;28;20065;-49
2022/10/31 00:53:41;;;;;;;9.98;7.00;;;17.60;70.80;;;;;;5011537;28;20086;-53
2022/10/31 00:56:10;;;;;;;14.75;7.65;;;17.50;70.80;;;;;;5013709;28;20038;-49
2022/10/31 00:58:37;;;;;;;10.15;6.78;;;17.50;70.70;;;;;;5025438;28;20401;-51
2022/10/31 01:01:08;;;;;;;9.82;6.35;;;17.40;70.40;;;;;;5025310;28;20557;-49
2022/10/31 01:03:38;;;;;;;9.45;6.38;;;17.40;70.40;;;;;;5023872;28;20038;-49
2022/10/31 01:06:13;;;;;;;11.98;6.07;;;17.30;70.40;;;;;;5022419;28;20042;-50
2022/10/31 01:08:41;;;;;;;;;;;17.30;70.50;;;;;;5023517;28;20116;-49
2022/10/31 01:11:19;;;;;;;8.25;6.15;;;17.30;70.60;;;;;;5030893;28;19921;-53
2022/10/31 01:13:47;;;;;;;11.48;7.15;;;17.20;70.10;;;;;;5014939;28;20037;-50
2022/10/31 01:16:16;;;;;;;11.82;6.28;;;17.10;70.20;;;;;;5012025;28;20034;-49
2022/10/31 01:18:45;;;;;;;10.43;6.45;;;17.00;70.30;;;;;;5027371;28;20050;-50
2022/10/31 01:21:16;;;;;;;11.18;7.70;;;17.00;70.30;;;;;;5019912;28;20042;-50
2022/10/31 01:23:48;;;;;;;10.25;7.65;;;16.90;70.40;;;;;;5008171;28;20041;-50
2022/10/31 01:26:30;;;;;;;12.52;6.30;;;16.90;70.40;;;;;;5004517;28;20498;-51
2022/10/31 01:29:06;;;;;;;9.95;8.02;;;16.80;70.50;;;;;;5017762;28;20045;-52
2022/10/31 01:31:38;;;;;;;9.48;7.45;;;16.80;70.40;;;;;;5026395;28;20580;-49
2022/10/31 01:34:13;;;;;;;10.73;7.10;;;16.70;70.40;;;;;;5006190;28;20061;-49
2022/10/31 01:36:44;;;;;;;9.52;6.82;;;16.70;70.60;;;;;;5020235;28;20601;-49
2022/10/31 01:39:13;;;;;;;12.13;7.65;;;16.70;70.60;;;;;;5011064;28;20399;-49
2022/10/31 01:41:46;;;;;;;10.57;6.85;;;16.60;71.00;;;;;;5010824;28;20121;-51
2022/10/31 01:44:15;;;;;;;10.35;6.70;;;16.60;71.00;;;;;;5014190;28;20029;-51
2022/10/31 01:46:58;;;;;;;8.55;6.60;;;16.60;71.00;;;;;;5019614;28;20030;-49
2022/10/31 01:49:43;;;;;;;8.38;7.25;;;16.60;71.20;;;;;;5027283;28;20049;-51
2022/10/31 01:52:21;;;;;;;8.63;6.78;;;16.60;71.40;;;;;;5015164;28;20050;-52
2022/10/31 01:55:04;;;;;;;9.77;7.53;;;16.50;71.20;;;;;;5018741;28;20527;-51
2022/10/31 01:57:40;;;;;;;8.00;7.07;;;16.60;71.40;;;;;;5027888;28;20506;-50
2022/10/31 02:00:10;;;;;;;7.77;6.80;;;16.50;71.20;;;;;;5025120;28;20066;-48
2022/10/31 02:02:42;;;;;;;8.27;7.05;;;16.50;71.10;;;;;;5012974;28;20136;-49
2022/10/31 02:05:17;;;;;;;10.60;6.85;;;16.50;71.10;;;;;;5021033;28;20046;-49
2022/10/31 02:07:54;;;;;;;7.28;6.03;;;16.50;71.00;;;;;;5026909;28;20095;-50
2022/10/31 02:10:28;;;;;;;8.70;6.15;;;16.40;70.80;;;;;;5011861;28;20049;-52
2022/10/31 02:12:58;;;;;;;8.70;7.05;;;16.40;70.70;;;;;;5021027;28;20069;-53
2022/10/31 02:15:28;;;;;;;12.57;7.57;;;16.40;70.60;;;;;;5020375;28;20043;-49
2022/10/31 02:17:57;;;;;;;8.27;6.25;;;16.40;70.60;;;;;;5008862;28;20044;-51
2022/10/31 02:20:47;;;;;;;10.60;7.97;;;16.40;70.60;;;;;;5007614;28;20038;-49
2022/10/31 02:23:45;;;;;;;7.75;6.07;;;16.40;70.70;;;;;;5015463;28;20698;-50
2022/10/31 02:26:43;;;;;;;9.55;6.53;;;16.30;70.70;;;;;;4989642;28;20050;-52
2022/10/31 02:29:44;;;;;;;10.20;6.35;;;16.30;70.80;;;;;;5005443;28;20054;-51
2022/10/31 02:32:32;;;;;;;6.45;5.68;;;16.20;70.70;;;;;;5007293;28;20050;-49
2022/10/31 02:35:13;;;;;;;9.65;6.57;;;16.20;70.60;;;;;;5008790;28;20392;-50
2022/10/31 02:37:57;;;;;;;8.95;6.45;;;16.20;70.70;;;;;;5008367;28;20050;-53
2022/10/31 02:40:30;;;;;;;7.63;5.78;;;16.20;70.80;;;;;;5020489;28;20065;-49
2022/10/31 02:43:38;;;;;;;11.10;7.55;;;16.20;70.80;;;;;;5025290;28;20045;-49
2022/10/31 02:46:16;;;;;;;12.02;7.78;;;16.20;71.00;;;;;;5029449;28;20045;-49
2022/10/31 02:48:45;;;;;;;11.43;7.93;;;16.20;71.00;;;;;;5011010;28;20046;-49
2022/10/31 02:51:16;;;;;;;12.27;7.73;;;16.10;71.20;;;;;;5018116;28;20042;-50
2022/10/31 02:53:47;;;;;;;12.95;7.93;;;16.10;71.30;;;;;;5011732;28;20038;-49
2022/10/31 02:56:19;;;;;;;10.85;7.05;;;16.10;71.10;;;;;;5026920;28;20037;-50
2022/10/31 02:58:52;;;;;;;9.68;7.32;;;16.10;71.10;;;;;;5011729;28;20038;-49
2022/10/31 03:01:33;;;;;;;10.25;7.63;;;16.10;71.10;;;;;;5010390;28;20054;-49
2022/10/31 03:04:22;;;;;;;10.70;7.40;;;16.10;70.90;;;;;;4989949;28;20049;-49
2022/10/31 03:07:18;;;;;;;9.65;6.72;;;16.10;70.80;;;;;;5002978;28;20494;-51
2022/10/31 03:10:10;;;;;;;8.32;6.65;;;16.00;70.60;;;;;;5039194;28;20073;-48
2022/10/31 03:13:17;;;;;;;7.97;6.13;;;16.00;70.40;;;;;;5026790;28;20069;-50
2022/10/31 03:15:51;;;;;;;10.07;5.88;;;16.00;70.40;;;;;;5010586;28;20097;-50
2022/10/31 03:18:30;;;;;;;9.48;6.70;;;15.90;70.10;;;;;;5013676;28;20436;-50
2022/10/31 03:21:16;;;;;;;9.35;6.70;;;15.90;70.10;;;;;;5016553;28;20038;-50
2022/10/31 03:23:45;;;;;;;11.13;6.47;;;15.80;70.00;;;;;;5007617;28;20552;-49
2022/10/31 03:26:21;;;;;;;8.32;6.25;;;15.80;70.10;;;;;;5005727;28;20046;-52
2022/10/31 03:28:56;;;;;;;8.25;6.20;;;15.80;70.30;;;;;;5011817;28;20129;-49
2022/10/31 03:31:29;;;;;;;9.80;6.88;;;15.70;70.40;;;;;;5024850;28;20746;-50
2022/10/31 03:34:02;;;;;;;7.60;6.68;;;15.70;70.50;;;;;;5018599;28;20049;-49
2022/10/31 03:36:34;;;;;;;8.15;6.07;;;15.70;70.60;;;;;;5018059;28;20133;-53
2022/10/31 03:39:04;;;;;;;8.98;6.20;;;15.70;70.60;;;;;;5007823;28;20058;-50
2022/10/31 03:41:42;;;;;;;8.98;6.43;;;15.60;70.60;;;;;;5008909;28;20042;-48
2022/10/31 03:44:20;;;;;;;13.90;7.07;;;15.60;70.60;;;;;;5003588;28;20421;-49
2022/10/31 03:46:58;;;;;;;10.70;7.03;;;15.60;70.60;;;;;;5016190;28;20048;-49
2022/10/31 03:49:25;;;;;;;10.57;6.70;;;15.60;70.50;;;;;;5020622;28;20049;-52
2022/10/31 03:52:23;;;;;;;9.52;6.15;;;15.50;70.50;;;;;;5020439;28;20047;-49
2022/10/31 03:54:59;;;;;;;9.48;6.22;;;15.50;70.60;;;;;;5005609;28;20037;-52
2022/10/31 03:57:45;;;;;;;13.32;7.15;;;15.50;70.50;;;;;;5024003;28;20045;-50
2022/10/31 04:00:16;;;;;;;11.35;6.43;;;15.50;70.60;;;;;;5014750;28;20129;-49
2022/10/31 04:02:59;;;;;;;10.88;5.60;;;15.50;70.40;;;;;;5020969;28;20069;-49
2022/10/31 04:05:31;;;;;;;9.27;5.70;;;15.40;70.40;;;;;;5032335;28;20057;-48
2022/10/31 04:08:04;;;;;;;8.38;6.72;;;15.40;70.40;;;;;;5019117;28;20061;-51
2022/10/31 04:10:38;;;;;;;9.20;6.30;;;15.40;70.50;;;;;;5025821;28;20052;-50
2022/10/31 04:13:09;;;;;;;9.25;6.95;;;15.40;70.70;;;;;;5009212;28;20065;-49
2022/10/31 04:15:47;;;;;;;7.70;6.05;;;15.40;70.90;;;;;;5023299;28;20144;-51
2022/10/31 04:18:16;;;;;;;11.40;6.65;;;15.40;71.00;;;;;;5012594;28;20041;-50
2022/10/31 04:20:42;;;;;;;13.80;8.90;;;15.40;71.30;;;;;;5010882;28;20037;-49
2022/10/31 04:23:23;;;;;;;9.68;7.15;;;15.40;71.60;;;;;;5019313;28;20140;-53
2022/10/31 04:25:52;;;;;;;9.02;7.38;;;15.50;72.10;;;;;;5012902;28;20046;-51
2022/10/31 04:28:24;;;;;;;14.30;7.78;;;15.40;72.00;;;;;;5011660;28;20568;-51
2022/10/31 04:30:53;;;;;;;11.00;7.38;;;15.50;72.10;;;;;;5011852;28;20144;-50
2022/10/31 04:33:22;;;;;;;9.55;7.10;;;15.40;72.00;;;;;;5018266;28;21012;-50
2022/10/31 04:35:49;;;;;;;12.75;7.32;;;15.50;71.90;;;;;;5020883;28;20053;-50
2022/10/31 04:38:20;;;;;;;9.93;7.38;;;15.50;72.00;;;;;;5008756;28;20108;-52
2022/10/31 04:40:48;;;;;;;9.32;6.68;;;15.50;71.90;;;;;;5012213;28;20053;-49
2022/10/31 04:43:36;;;;;;;11.88;6.90;;;15.50;71.90;;;;;;5023159;28;20068;-49
2022/10/31 04:46:04;;;;;;;12.15;6.97;;;15.50;71.70;;;;;;5016892;28;20075;-49
2022/10/31 04:48:31;;;;;;;9.43;7.07;;;15.50;71.80;;;;;;5021945;28;20042;-49
2022/10/31 04:51:02;;;;;;;9.85;7.07;;;15.50;71.70;;;;;;5016225;28;20072;-52
2022/10/31 04:53:29;;;;;;;7.75;6.50;;;15.50;71.60;;;;;;5017713;28;20041;-50
2022/10/31 04:56:28;;;;;;;10.82;6.43;;;15.50;71.60;;;;;;4994927;28;20057;-49
2022/10/31 04:58:58;;;;;;;9.00;6.43;;;15.40;71.40;;;;;;5022281;28;20038;-49
2022/10/31 05:01:35;;;;;;;9.52;7.03;;;15.40;71.50;;;;;;5007961;28;20045;-49
2022/10/31 05:04:02;;;;;;;10.65;6.32;;;15.40;71.50;;;;;;5021043;28;20049;-50
2022/10/31 05:06:31;;;;;;;8.32;6.43;;;15.40;71.50;;;;;;5016611;28;20125;-52
2022/10/31 05:09:02;;;;;;;7.35;6.57;;;15.60;71.70;;;;;;5015116;28;20065;-51
2022/10/31 05:11:29;;;;;;;8.70;6.95;;;15.40;71.60;;;;;;5017146;28;20054;-53
2022/10/31 05:14:08;;;;;;;7.03;6.32;;;15.40;71.70;;;;;;5018909;28;20754;-49
2022/10/31 05:16:56;;;;;;;8.38;6.43;;;15.40;71.70;;;;;;5019605;28;20053;-49
2022/10/31 05:19:57;;;;;;;9.73;7.28;;;15.40;71.70;;;;;;5019344;28;20115;-49
2022/10/31 05:22:58;;;;;;;9.52;7.18;;;15.50;71.70;;;;;;4977706;28;20134;-50
2022/10/31 05:25:28;;;;;;;8.93;7.38;;;15.40;71.60;;;;;;5020037;28;20140;-49
2022/10/31 05:27:56;;;;;;;8.57;7.18;;;15.40;71.50;;;;;;5015934;28;20091;-50
2022/10/31 05:30:26;;;;;;;11.55;8.02;;;15.40;71.50;;;;;;5023005;28;20050;-50
2022/10/31 05:32:53;;;;;;;10.25;7.25;;;15.40;71.40;;;;;;5017974;28;20053;-49
2022/10/31 05:35:39;;;;;;;10.10;7.85;;;15.40;71.20;;;;;;5019107;28;20092;-48
2022/10/31 05:38:30;;;;;;;12.93;8.25;;;15.40;71.20;;;;;;5017136;28;20457;-50
2022/10/31 05:41:04;;;;;;;11.70;7.97;;;15.30;71.10;;;;;;5021627;28;20054;-48
2022/10/31 05:43:32;;;;;;;13.82;8.80;;;15.30;71.00;;;;;;5019292;28;20087;-49
2022/10/31 05:46:02;;;;;;;8.15;7.32;;;15.30;70.90;;;;;;5016797;28;20072;-48
2022/10/31 05:48:53;;;;;;;11.95;8.18;;;15.30;70.80;;;;;;5019251;28;20369;-48
2022/10/31 05:51:45;;;;;;;10.65;7.63;;;15.20;70.80;;;;;;5024151;28;20052;-49
2022/10/31 05:54:13;;;;;;;8.98;7.60;;;15.20;70.80;;;;;;5014318;28;20133;-52
2022/10/31 05:56:43;;;;;;;9.00;7.22;;;15.10;70.80;;;;;;5003098;28;20070;-50
2022/10/31 05:59:12;;;;;;;9.07;7.57;;;15.10;70.90;;;;;;5018554;28;20194;-50
2022/10/31 06:01:41;;;;;;;10.55;6.85;;;15.10;71.00;;;;;;5028848;28;20038;-49
2022/10/31 06:04:26;;;;;;;10.05;7.95;;;15.10;70.90;;;;;;5014764;28;20121;-51
2022/10/31 06:06:57;;;;;;;9.63;7.10;;;15.10;71.00;;;;;;5018283;28;20092;-51
2022/10/31 06:09:24;;;;;;;7.95;7.00;;;15.00;70.90;;;;;;5026777;28;20042;-51
2022/10/31 06:11:54;;;;;;;8.52;7.13;;;15.00;70.80;;;;;;5021777;28;20041;-49
2022/10/31 06:14:25;;;;;;;10.02;7.88;;;15.00;70.80;;;;;;5011860;28;20445;-53
2022/10/31 06:16:57;;;;;;;9.75;7.40;;;15.00;70.90;;;;;;5010595;28;20050;-50
2022/10/31 06:19:53;;;;;;;10.93;6.85;;;14.90;70.80;;;;;;5003444;28;20422;-50
2022/10/31 06:22:24;;;;;;;13.25;7.75;;;14.90;70.70;;;;;;5007845;28;20581;-48
2022/10/31 06:24:54;;;;;;;9.43;7.07;;;14.90;70.70;;;;;;5005658;28;20057;-49
2022/10/31 06:27:29;;;;;;;9.70;7.00;;;14.90;70.70;;;;;;5014066;28;20510;-49
2022/10/31 06:29:59;;;;;;;12.70;7.90;;;14.80;70.70;;;;;;5005607;28;20060;-51
2022/10/31 06:32:41;;;;;;;11.10;7.93;;;14.80;70.70;;;;;;5005654;28;20042;-49
2022/10/31 06:35:09;;;;;;;10.68;7.25;;;14.80;70.60;;;;;;5006806;28;20038;-49
2022/10/31 06:37:39;;;;;;;10.27;7.20;;;14.80;70.70;;;;;;5006950;28;20048;-50
2022/10/31 06:40:22;;;;;;;9.73;7.80;;;14.80;70.60;;;;;;5003680;28;20068;-50
2022/10/31 06:43:11;;;;;;;11.70;7.32;;;14.70;70.60;;;;;;4998309;28;20052;-49
2022/10/31 06:45:39;;;;;;;8.95;7.50;;;14.70;70.70;;;;;;5014088;28;20141;-49
2022/10/31 06:48:20;;;;;;;14.55;8.18;;;14.70;70.70;;;;;;5005843;28;20768;-49
2022/10/31 06:51:16;;;;;;;8.52;7.20;;;14.70;70.90;;;;;;5006600;28;20077;-49
2022/10/31 06:53:45;;;;;;;10.82;7.35;;;14.60;70.70;;;;;;5015149;28;20046;-49
2022/10/31 06:56:17;;;;;;;8.68;6.97;;;14.60;70.70;;;;;;5015452;28;20054;-49
2022/10/31 06:58:48;;;;;;;11.15;7.60;;;14.60;70.70;;;;;;5025420;28;20123;-52
2022/10/31 07:01:25;;;;;;;11.13;7.50;;;14.60;70.90;;;;;;5001432;28;20058;-49
2022/10/31 07:03:53;;;;;;;8.82;6.82;;;14.60;70.80;;;;;;5011561;28;20308;-50
2022/10/31 07:06:19;;;;;;;10.27;7.47;;;14.60;70.80;;;;;;5018646;28;20045;-50
2022/10/31 07:08:56;;;;;;;9.98;8.27;;;14.50;70.80;;;;;;4993174;28;20073;-50
2022/10/31 07:11:25;;;;;;;8.93;7.00;;;14.60;70.90;;;;;;5003184;28;20458;-51
2022/10/31 07:13:57;;;;;;;10.88;7.85;;;14.60;70.90;;;;;;5008688;28;20039;-49
2022/10/31 07:16:25;;;;;;;10.00;8.35;;;14.50;71.00;;;;;;5021982;28;20143;-49
2022/10/31 07:18:54;;;;;;;9.13;6.78;;;14.50;71.00;;;;;;5027563;28;20037;-50
2022/10/31 07:21:21;;;;;;;8.98;7.78;;;14.50;71.10;;;;;;4995962;28;20069;-51
2022/10/31 07:23:49;;;;;;;11.88;7.53;;;14.50;71.20;;;;;;5007153;28;20413;-49
2022/10/31 07:26:35;;;;;;;10.00;7.25;;;14.50;71.40;;;;;;4999097;28;20426;-49
2022/10/31 07:29:04;;;;;;;9.23;7.45;;;14.50;71.50;;;;;;5014453;28;20072;-51
2022/10/31 07:31:31;;;;;;;10.25;6.68;;;14.60;71.60;;;;;;5012535;28;20054;-53
2022/10/31 07:34:03;;;;;;;9.07;7.80;;;14.60;71.60;;;;;;5016387;28;20037;-49
2022/10/31 07:37:02;;;;;;;11.10;7.85;;;14.60;71.60;;;;;;5018140;28;20720;-48
2022/10/31 07:39:32;;;;;;;12.38;8.82;;;14.70;71.60;;;;;;5016155;28;20041;-50
2022/10/31 07:42:04;;;;;;;11.70;8.05;;;14.70;71.90;;;;;;5017644;28;20049;-48
2022/10/31 07:44:32;;;;;;;11.27;7.25;;;14.70;72.10;;;;;;5016529;28;20531;-49
2022/10/31 07:47:17;;;;;;;11.43;8.05;;;14.70;72.10;;;;;;5016325;28;20057;-52
2022/10/31 07:50:05;;;;;;;13.07;8.45;;;14.70;72.20;;;;;;5021142;28;20060;-49
2022/10/31 07:53:05;;;;;;;10.48;7.15;;;14.70;72.30;;;;;;5021535;28;20107;-49
2022/10/31 07:55:54;;;;;;;10.00;8.07;;;14.80;72.60;;;;;;5020738;28;20046;-50
2022/10/31 07:58:25;;;;;;;10.80;7.65;;;14.80;72.30;;;;;;5016444;28;20054;-50
2022/10/31 08:00:54;;;;;;;11.57;7.65;;;14.80;72.40;;;;;;5009332;28;20049;-51
2022/10/31 08:03:33;;;;;;;12.88;8.52;;;14.80;72.40;;;;;;5019672;28;20034;-50
2022/10/31 08:06:18;;;;;;;11.32;8.25;;;14.80;72.60;;;;;;5014241;28;20053;-49
2022/10/31 08:09:09;;;;;;;11.90;8.30;;;14.90;72.70;;;;;;5011797;28;20120;-51
2022/10/31 08:11:40;;;;;;;13.90;9.88;;;14.90;72.80;;;;;;5014618;28;20824;-51
2022/10/31 08:14:06;;;;;;;11.82;8.55;;;15.00;73.10;;;;;;5019621;28;20133;-49
2022/10/31 08:16:37;;;;;;;13.80;9.77;;;15.00;73.40;;;;;;5018556;28;20521;-49
2022/10/31 08:19:05;;;;;;;17.13;10.95;;;15.10;73.90;;;;;;5018364;28;20132;-50
2022/10/31 08:21:37;;;;;;;18.88;11.23;;;15.20;74.20;;;;;;5014768;28;20100;-49
2022/10/31 08:24:07;;;;;;;17.73;12.73;;;15.20;74.40;;;;;;5026933;28;20075;-51
2022/10/31 08:26:37;;;;;;;18.92;12.52;;;15.40;75.00;;;;;;5025418;28;20053;-49
2022/10/31 08:29:09;;;;;;;20.45;12.00;;;15.50;75.20;;;;;;5022671;28;20133;-50
2022/10/31 08:31:40;;;;;;;21.00;11.85;;;15.60;75.20;;;;;;5022205;28;20510;-52
2022/10/31 08:34:30;;;;;;;20.40;12.52;;;15.70;75.30;;;;;;5020889;28;20045;-51
2022/10/31 08:37:19;;;;;;;18.02;13.13;;;15.90;75.20;;;;;;5018342;28;20138;-50
2022/10/31 08:39:56;;;;;;;20.00;11.98;;;16.00;75.20;;;;;;5015717;28;20053;-51
2022/10/31 08:42:25;;;;;;;22.02;12.82;;;16.10;75.00;;;;;;5023684;28;20049;-50
2022/10/31 08:44:54;;;;;;;21.40;12.60;;;16.20;74.90;;;;;;5007630;28;20049;-49
2022/10/31 08:47:24;;;;;;;22.90;13.55;;;16.30;74.80;;;;;;5020972;28;20405;-49
2022/10/31 08:49:52;;;;;;;21.80;14.02;;;16.40;74.60;;;;;;5014851;28;20513;-50
2022/10/31 08:52:23;;;;;;;20.83;12.50;;;16.50;74.60;;;;;;5025774;28;20052;-50
2022/10/31 08:55:11;;;;;;;19.67;12.57;;;16.60;74.70;;;;;;5008846;28;20045;-49
2022/10/31 08:58:09;;;;;;;22.85;12.85;;;16.60;74.30;;;;;;5003283;28;20045;-50
2022/10/31 09:00:44;;;;;;;21.48;12.27;;;16.70;74.20;;;;;;5020296;28;20056;-50
2022/10/31 09:03:27;;;;;;;20.83;13.45;;;16.80;74.10;;;;;;5004075;28;20402;-49
2022/10/31 09:06:02;;;;;;;20.45;12.68;;;16.90;74.20;;;;;;5003203;28;20038;-49
2022/10/31 09:08:35;;;;;;;18.55;12.90;;;16.90;73.80;;;;;;5012620;28;20041;-50
2022/10/31 09:11:04;;;;;;;19.02;12.32;;;16.90;73.60;;;;;;5016322;28;20044;-53
2022/10/31 09:14:04;;;;;;;19.25;11.73;;;17.00;73.60;;;;;;4973958;28;20414;-49
2022/10/31 09:16:51;;;;;;;18.75;12.25;;;17.00;73.40;;;;;;5017665;28;20123;-48
2022/10/31 09:19:23;;;;;;;21.77;12.07;;;17.00;73.40;;;;;;5021975;28;20041;-50
2022/10/31 09:21:53;;;;;;;18.48;13.25;;;17.00;73.40;;;;;;5007969;28;20072;-49
2022/10/31 09:24:21;;;;;;;17.10;11.35;;;17.10;73.60;;;;;;5024036;28;20072;-50
2022/10/31 09:26:50;;;;;;;21.10;13.52;;;17.10;73.60;;;;;;5023475;28;20052;-50
2022/10/31 09:29:25;;;;;;;20.35;12.05;;;17.10;73.60;;;;;;5030759;28;20038;-49
2022/10/31 09:31:56;;;;;;;17.58;11.82;;;17.10;73.60;;;;;;5016882;28;20124;-49
2022/10/31 09:34:35;;;;;;;22.95;12.65;;;17.20;73.70;;;;;;5021859;28;20037;-50
2022/10/31 09:37:11;;;;;;;22.58;12.80;;;17.20;73.70;;;;;;5013473;28;20046;-49
2022/10/31 09:39:40;;;;;;;18.80;11.50;;;17.30;73.90;;;;;;5009761;28;20700;-52
2022/10/31 09:42:27;;;;;;;20.23;12.52;;;17.30;73.80;;;;;;5015511;28;20119;-49
2022/10/31 09:45:07;;;;;;;19.25;13.25;;;17.30;73.70;;;;;;5018234;28;20502;-49
2022/10/31 09:48:03;;;;;;;27.58;13.30;;;17.40;74.10;;;;;;5010915;28;20054;-49
2022/10/31 09:50:49;;;;;;;20.00;10.93;;;17.50;74.10;;;;;;5016111;28;20042;-49
2022/10/31 09:53:51;;;;;;;17.80;11.02;;;17.60;73.90;;;;;;5010010;28;20100;-49
2022/10/31 09:56:23;;;;;;;22.38;12.23;;;17.60;73.80;;;;;;5009707;28;20038;-49
2022/10/31 09:58:57;;;;;;;18.90;12.57;;;17.70;73.50;;;;;;4994188;28;20120;-50
2022/10/31 10:01:30;;;;;;;18.02;11.48;;;17.80;73.40;;;;;;5013037;28;20088;-50
2022/10/31 10:04:24;;;;;;;16.27;11.82;;;17.90;73.40;;;;;;5011301;28;20124;-48
2022/10/31 10:07:30;;;;;;;14.70;9.63;;;17.90;73.20;;;;;;5008768;28;20061;-49
2022/10/31 10:10:47;;;;;;;14.35;10.05;;;18.00;72.90;;;;;;5013268;28;20537;-50
2022/10/31 10:14:02;;;;;;;15.73;9.63;;;18.10;72.70;;;;;;5017182;28;20037;-49
2022/10/31 10:16:49;;;;;;;17.17;9.80;;;18.20;72.70;;;;;;5007889;28;20608;-49
2022/10/31 10:19:43;;;;;;;16.95;10.63;;;18.30;72.50;;;;;;5015828;28;20441;-49
2022/10/31 10:22:37;;;;;;;21.33;11.38;;;18.40;72.40;;;;;;5017137;28;20051;-49
2022/10/31 10:25:23;;;;;;;13.90;9.77;;;18.50;72.00;;;;;;5018037;28;20045;-51
2022/10/31 10:27:57;;;;;;;14.82;10.30;;;18.60;71.90;;;;;;5010502;28;20121;-50
2022/10/31 10:30:46;;;;;;;22.08;11.30;;;18.60;71.70;;;;;;5010686;28;20084;-50
2022/10/31 10:33:34;;;;;;;17.08;10.02;;;18.70;71.80;;;;;;5029543;28;20080;-52
2022/10/31 10:36:07;;;;;;;16.15;9.63;;;18.80;71.50;;;;;;5010002;28;20038;-49
2022/10/31 10:39:17;;;;;;;14.68;9.43;;;18.80;71.20;;;;;;5014392;28;20113;-51
2022/10/31 10:47:43;;;;;;;18.10;11.18;;;19.00;70.30;;;;;;5016483;28;20446;-49
2022/10/31 10:50:18;;;;;;;16.23;11.07;;;19.10;70.40;;;;;;5013687;28;20045;-51
2022/10/31 10:53:31;;;;;;;15.35;9.90;;;19.10;70.20;;;;;;5011370;28;20057;-49
2022/10/31 10:56:38;;;;;;;16.45;11.05;;;19.20;70.40;;;;;;5012708;28;20048;-51
2022/10/31 10:59:13;;;;;;;17.45;11.65;;;19.20;69.90;;;;;;5019221;28;20038;-50
2022/10/31 11:01:45;;;;;;;14.05;9.45;;;19.30;69.90;;;;;;5030070;28;20041;-48
2022/10/31 11:04:29;;;;;;;19.15;10.65;;;19.30;69.90;;;;;;5013070;28;20030;-50
2022/10/31 11:07:05;;;;;;;13.50;9.52;;;19.40;69.80;;;;;;5003143;28;20034;-49
2022/10/31 11:09:33;;;;;;;18.90;11.27;;;19.50;69.50;;;;;;5018169;28;20041;-49
2022/10/31 11:12:10;;;;;;;17.20;10.50;;;19.50;69.60;;;;;;5014955;28;20048;-49
2022/10/31 11:14:46;;;;;;;15.57;9.85;;;19.60;69.60;;;;;;5001341;28;20042;-51
2022/10/31 11:17:26;;;;;;;17.27;11.00;;;19.70;68.90;;;;;;5018701;28;20034;-48
2022/10/31 11:20:11;;;;;;;16.17;9.45;;;19.70;68.80;;;;;;5029443;28;20111;-51
2022/10/31 11:22:50;;;;;;;19.52;10.15;;;19.90;68.80;;;;;;5014228;28;20076;-52
2022/10/31 11:25:25;;;;;;;16.67;9.80;;;19.90;68.60;;;;;;5021687;28;20049;-51
2022/10/31 11:28:08;;;;;;;13.82;9.80;;;19.90;68.30;;;;;;5015282;28;20556;-51
2022/10/31 11:30:45;;;;;;;17.52;9.82;;;20.00;68.00;;;;;;5027190;28;20640;-53
2022/10/31 11:33:31;;;;;;;13.57;9.43;;;20.00;67.80;;;;;;5005224;28;20116;-50
2022/10/31 11:36:00;;;;;;;24.25;11.90;;;20.10;67.60;;;;;;5010445;28;20037;-50
2022/10/31 11:38:37;;;;;;;16.08;9.57;;;20.10;67.70;;;;;;5042070;22;20493;-51
2022/10/31 11:41:20;;;;;;;12.93;9.57;;;20.10;67.50;;;;;;5027483;28;20038;-50
2022/10/31 11:44:02;;;;;;;15.55;8.57;;;20.20;67.50;;;;;;5035992;28;20039;-48
2022/10/31 11:46:34;;;;;;;13.80;9.20;;;20.20;67.10;;;;;;5040737;28;20603;-47
2022/10/31 11:49:02;;;;;;;16.70;8.75;;;20.30;67.10;;;;;;5042161;28;20712;-50
2022/10/31 11:51:33;;;;;;;14.27;8.80;;;20.30;67.40;;;;;;5029078;28;20045;-47
2022/10/31 11:54:04;;;;;;;13.88;9.15;;;20.40;67.00;;;;;;5025191;28;20042;-51
2022/10/31 11:56:42;;;;;;;16.40;8.57;;;20.40;66.80;;;;;;5038501;28;20041;-53
2022/10/31 11:59:34;;;;;;;14.20;8.75;;;20.40;66.20;;;;;;5043707;28;20065;-49
2022/10/31 12:02:18;;;;;;;14.38;8.73;;;20.50;66.00;;;;;;5039766;28;20056;-52
2022/10/31 12:04:55;;;;;;;13.80;9.13;;;20.60;66.00;;;;;;5040867;28;20513;-54
2022/10/31 12:07:26;;;;;;;12.68;8.25;;;20.60;66.10;;;;;;5050567;28;20103;-52
2022/10/31 12:09:57;;;;;;;13.10;8.40;;;20.70;66.00;;;;;;5031290;28;20041;-49
2022/10/31 12:12:28;;;;;;;14.73;9.48;;;20.70;66.00;;;;;;5029832;28;20041;-52
2022/10/31 12:15:04;;;;;;;13.00;8.10;;;20.70;65.80;;;;;;5036567;28;20044;-49
2022/10/31 12:17:41;;;;;;;13.88;8.73;;;20.80;65.30;;;;;;5030176;28;20409;-50
2022/10/31 12:20:52;;;;;;;10.32;8.10;;;20.80;65.30;;;;;;5028830;28;20037;-50
2022/10/31 12:23:48;;;;;;;10.98;7.53;;;20.90;65.30;;;;;;5036386;28;20036;-51
2022/10/31 12:26:30;;;;;;;12.70;8.27;;;20.90;65.30;;;;;;5039896;28;20059;-50
2022/10/31 12:29:02;;;;;;;13.37;9.30;;;21.00;64.90;;;;;;5041948;28;20092;-48
2022/10/31 12:31:48;;;;;;;12.07;6.78;;;21.00;64.70;;;;;;5031362;28;20072;-52
2022/10/31 12:34:32;;;;;;;12.23;8.00;;;21.10;65.00;;;;;;5039729;28;20044;-50
2022/10/31 12:37:29;;;;;;;14.07;7.18;;;21.10;64.80;;;;;;5053106;28;20083;-52
2022/10/31 12:40:32;;;;;;;11.13;7.25;;;21.20;64.50;;;;;;5033582;28;20060;-50
2022/10/31 12:43:26;;;;;;;11.93;6.35;;;21.20;64.10;;;;;;5041693;28;20045;-50
2022/10/31 12:45:56;;;;;;;11.95;7.03;;;21.30;63.90;;;;;;5013352;28;20128;-49
2022/10/31 12:48:50;;;;;;;13.18;7.35;;;21.30;64.10;;;;;;5017076;28;20052;-52
2022/10/31 12:51:49;;;;;;;9.77;6.68;;;21.40;63.70;;;;;;5049166;28;20087;-51
2022/10/31 12:54:21;;;;;;;10.63;6.10;;;21.40;63.50;;;;;;5025303;28;20041;-53
2022/10/31 12:57:05;;;;;;;10.90;6.38;;;21.40;63.70;;;;;;5040754;28;20207;-52
2022/10/31 12:59:39;;;;;;;11.05;6.53;;;21.50;63.30;;;;;;5041811;28;20045;-49
2022/10/31 13:02:29;;;;;;;16.35;7.25;;;21.50;63.40;;;;;;5052758;28;20045;-51
2022/10/31 13:05:17;;;;;;;8.07;6.20;;;21.50;63.00;;;;;;5033935;28;20040;-53
2022/10/31 13:07:58;;;;;;;7.97;6.15;;;21.50;63.10;;;;;;5032941;28;20099;-52
2022/10/31 13:10:41;;;;;;;12.82;6.30;;;21.60;63.00;;;;;;5041594;28;20124;-51
2022/10/31 13:13:18;;;;;;;9.68;6.10;;;21.60;63.00;;;;;;5031026;28;20059;-51
2022/10/31 13:16:10;;;;;;;11.63;6.82;;;21.60;62.80;;;;;;5039711;28;20434;-51
2022/10/31 13:19:11;;;;;;;7.53;5.07;;;21.70;62.60;;;;;;5030375;28;20053;-48
2022/10/31 13:22:12;;;;;;;10.70;5.82;;;21.70;62.80;;;;;;5030426;28;20063;-53
2022/10/31 13:24:54;;;;;;;9.45;5.90;;;21.70;62.50;;;;;;5035206;28;20449;-49
2022/10/31 13:27:26;;;;;;;8.27;4.88;;;21.80;62.50;;;;;;5035971;28;20040;-53
2022/10/31 13:30:01;;;;;;;11.02;5.53;;;21.80;62.80;;;;;;5031989;28;20596;-52
2022/10/31 13:32:43;;;;;;;10.77;5.60;;;21.90;62.30;;;;;;5032287;28;20463;-54
2022/10/31 13:35:31;;;;;;;8.48;4.95;;;21.90;62.40;;;;;;5034447;28;20570;-50
2022/10/31 13:38:30;;;;;;;8.63;5.45;;;22.00;61.60;;;;;;5041706;28;20043;-51